Time;durP1;ratioP1;P1;durP2;ratioP2;P2;SDS_P1;SDS_P2;PMS_P1;PMS_P2;Temp;Humidity;BMP_temperature;BMP_pressure;BME280_temperature;BME280_humidity;BME280_pressure;Samples;Min_cycle;Max_cycle;Signal;HPM_P1;HPM_P2
2022/04/05 00:00:45;;;;;;;38.70;31.20;;;;;;;;;;5004650;28;20430;-45
2022/04/05 00:03:11;;;;;;;39.53;31.37;;;;;;;;;;5005113;28;21194;-44
2022/04/05 00:05:37;;;;;;;39.20;31.27;;;;;;;;;;5004025;28;20439;-45
2022/04/05 00:08:03;;;;;;;39.53;31.63;;;;;;;;;;5003693;28;20423;-45
2022/04/05 00:10:30;;;;;;;39.47;32.30;;;;;;;;;;4986279;28;20457;-45
2022/04/05 00:12:58;;;;;;;38.40;31.97;;;;;;;;;;5007292;28;20422;-45
2022/04/05 00:15:24;;;;;;;42.70;33.27;;;;;;;;;;4992806;28;20899;-45
2022/04/05 00:17:50;;;;;;;42.20;32.83;;;;;;;;;;5005512;28;20559;-45
2022/04/05 00:20:17;;;;;;;41.83;33.13;;;;;;;;;;5004666;28;20531;-45
2022/04/05 00:22:43;;;;;;;40.47;32.57;;;;;;;;;;5009579;28;21201;-45
2022/04/05 00:25:09;;;;;;;39.63;32.23;;;;;;;;;;5006349;28;20479;-45
2022/04/05 00:27:36;;;;;;;38.13;30.53;;;;;;;;;;5003201;28;20499;-45
2022/04/05 00:30:02;;;;;;;37.80;29.83;;;;;;;;;;5006770;28;20689;-45
2022/04/05 00:32:28;;;;;;;42.30;29.37;;;;;;;;;;5007371;28;20438;-45
2022/04/05 00:34:54;;;;;;;36.23;29.67;;;;;;;;;;5007658;28;20935;-45
2022/04/05 00:37:20;;;;;;;36.23;28.30;;;;;;;;;;5003714;28;20489;-45
2022/04/05 00:39:50;;;;;;;36.23;29.67;;;;;;;;;;5004231;28;20620;-45
2022/04/05 00:42:16;;;;;;;33.13;26.80;;;;;;;;;;5002597;28;20656;-45
2022/04/05 00:44:42;;;;;;;29.80;25.43;;;;;;;;;;5005214;28;20668;-45
2022/04/05 00:47:16;;;;;;;32.30;26.10;;;;;;;;;;5006802;28;20414;-45
2022/04/05 00:49:45;;;;;;;33.17;26.83;;;;;;;;;;5003988;28;21490;-44
2022/04/05 00:52:13;;;;;;;36.77;29.37;;;;;;;;;;5004625;28;20418;-45
2022/04/05 00:54:40;;;;;;;37.97;30.93;;;;;;;;;;5006092;28;20797;-45
2022/04/05 00:57:09;;;;;;;40.13;32.20;;;;;;;;;;5008408;28;20667;-45
2022/04/05 00:59:36;;;;;;;44.20;35.27;;;;;;;;;;4984653;28;21180;-45
2022/04/05 01:02:02;;;;;;;52.47;39.63;;;;;;;;;;5004086;28;20855;-45
2022/04/05 01:04:33;;;;;;;49.70;36.67;;;;;;;;;;5000786;28;20422;-45
2022/04/05 01:07:00;;;;;;;53.33;39.50;;;;;;;;;;5001628;28;20420;-45
2022/04/05 01:09:26;;;;;;;63.00;46.77;;;;;;;;;;5002000;28;20419;-44
2022/04/05 01:11:52;;;;;;;68.37;50.80;;;;;;;;;;5008985;28;20419;-44
2022/04/05 01:14:18;;;;;;;70.33;52.83;;;;;;;;;;5006108;28;20414;-44
2022/04/05 01:16:45;;;;;;;70.30;53.27;;;;;;;;;;4982296;28;21143;-45
2022/04/05 01:19:11;;;;;;;80.83;56.27;;;;;;;;;;5002173;28;21106;-44
2022/04/05 01:21:37;;;;;;;82.93;56.00;;;;;;;;;;5003425;28;20797;-44
2022/04/05 01:24:07;;;;;;;78.70;54.97;;;;;;;;;;5005220;28;22097;-45
2022/04/05 01:26:40;;;;;;;74.37;52.37;;;;;;;;;;5004483;28;20599;-44
2022/04/05 01:29:06;;;;;;;72.33;53.33;;;;;;;;;;5000696;28;20780;-45
2022/04/05 01:31:51;;;;;;;80.17;55.03;;;;;;;;;;5003416;28;20441;-44
2022/04/05 01:34:19;;;;;;;73.23;51.23;;;;;;;;;;5003420;28;20904;-45
2022/04/05 01:36:49;;;;;;;73.07;52.30;;;;;;;;;;4980991;28;20458;-44
2022/04/05 01:39:16;;;;;;;70.43;47.97;;;;;;;;;;5006046;28;20434;-44
2022/04/05 01:41:42;;;;;;;67.90;49.27;;;;;;;;;;5005262;28;20430;-44
2022/04/05 01:44:09;;;;;;;65.97;48.23;;;;;;;;;;4999531;28;20513;-44
2022/04/05 01:46:35;;;;;;;63.50;45.70;;;;;;;;;;5001807;28;20418;-44
2022/04/05 01:49:02;;;;;;;65.27;46.57;;;;;;;;;;5000877;28;20415;-45
2022/04/05 01:51:28;;;;;;;68.80;47.73;;;;;;;;;;5001084;28;20890;-45
2022/04/05 01:53:57;;;;;;;62.50;46.40;;;;;;;;;;4996540;28;20814;-45
2022/04/05 01:56:23;;;;;;;63.97;46.67;;;;;;;;;;5001044;28;20442;-44
2022/04/05 01:58:50;;;;;;;61.50;44.47;;;;;;;;;;5002051;28;21315;-45
2022/04/05 02:01:16;;;;;;;68.50;49.63;;;;;;;;;;5003640;28;20418;-45
2022/04/05 02:03:42;;;;;;;66.23;48.17;;;;;;;;;;4999059;28;20414;-45
2022/04/05 02:06:09;;;;;;;66.63;47.23;;;;;;;;;;5001157;28;20488;-45
2022/04/05 02:08:36;;;;;;;70.93;49.37;;;;;;;;;;5002896;28;21075;-44
2022/04/05 02:11:02;;;;;;;65.63;48.30;;;;;;;;;;5004221;28;20784;-45
2022/04/05 02:13:28;;;;;;;66.87;47.93;;;;;;;;;;4997643;28;20652;-45
2022/04/05 02:15:54;;;;;;;67.70;49.80;;;;;;;;;;5002542;28;20424;-45
2022/04/05 02:18:20;;;;;;;65.90;47.50;;;;;;;;;;4980767;28;20477;-45
2022/04/05 02:20:49;;;;;;;63.07;46.20;;;;;;;;;;5001807;28;20415;-45
2022/04/05 02:23:15;;;;;;;63.87;47.10;;;;;;;;;;5005448;28;20419;-45
2022/04/05 02:25:41;;;;;;;67.07;48.13;;;;;;;;;;5006937;28;20426;-45
2022/04/05 02:28:07;;;;;;;65.07;46.20;;;;;;;;;;4980344;28;20646;-45
2022/04/05 02:30:34;;;;;;;67.03;48.23;;;;;;;;;;5002519;28;20901;-45
2022/04/05 02:33:00;;;;;;;58.77;44.57;;;;;;;;;;4987136;28;20486;-45
2022/04/05 02:35:26;;;;;;;64.80;46.63;;;;;;;;;;5000361;28;20447;-45
2022/04/05 02:37:52;;;;;;;59.63;45.60;;;;;;;;;;5001450;28;21060;-45
2022/04/05 02:40:18;;;;;;;64.43;49.03;;;;;;;;;;5000880;28;20452;-45
2022/04/05 02:42:45;;;;;;;67.93;49.23;;;;;;;;;;5001123;28;20801;-45
2022/04/05 02:45:11;;;;;;;64.07;46.30;;;;;;;;;;5003988;28;20713;-45
2022/04/05 02:47:37;;;;;;;69.00;47.20;;;;;;;;;;4998860;28;20430;-45
2022/04/05 02:50:04;;;;;;;65.40;48.03;;;;;;;;;;4998732;28;20426;-45
2022/04/05 02:52:30;;;;;;;68.83;47.80;;;;;;;;;;5005587;28;20537;-45
2022/04/05 02:54:56;;;;;;;62.07;44.77;;;;;;;;;;5001123;28;21371;-45
2022/04/05 02:57:22;;;;;;;59.87;45.10;;;;;;;;;;4999148;28;20453;-45
2022/04/05 02:59:48;;;;;;;59.37;43.70;;;;;;;;;;4999390;28;20429;-45
2022/04/05 03:02:14;;;;;;;59.83;45.03;;;;;;;;;;5002136;28;20517;-45
2022/04/05 03:04:40;;;;;;;63.20;44.63;;;;;;;;;;4981711;28;20430;-45
2022/04/05 03:07:06;;;;;;;65.67;46.73;;;;;;;;;;5000559;28;20618;-45
2022/04/05 03:09:32;;;;;;;68.33;48.27;;;;;;;;;;5002461;28;20441;-45
2022/04/05 03:11:59;;;;;;;64.93;46.63;;;;;;;;;;4999270;28;20426;-45
2022/04/05 03:14:25;;;;;;;63.20;47.17;;;;;;;;;;5002807;28;20798;-45
2022/04/05 03:16:51;;;;;;;67.20;48.30;;;;;;;;;;5003373;28;20488;-44
2022/04/05 03:19:17;;;;;;;65.70;47.83;;;;;;;;;;5003517;28;20975;-45
2022/04/05 03:21:43;;;;;;;64.37;47.63;;;;;;;;;;5005768;28;20545;-45
2022/04/05 03:24:09;;;;;;;64.87;47.07;;;;;;;;;;4980968;28;20432;-45
2022/04/05 03:26:35;;;;;;;63.90;47.93;;;;;;;;;;5000465;28;21052;-45
2022/04/05 03:29:01;;;;;;;69.27;50.47;;;;;;;;;;5002802;28;20705;-45
2022/04/05 03:31:27;;;;;;;73.13;53.17;;;;;;;;;;5000887;28;21339;-45
2022/04/05 03:33:53;;;;;;;67.03;50.87;;;;;;;;;;4997344;28;20438;-45
2022/04/05 03:36:19;;;;;;;72.53;53.13;;;;;;;;;;4998683;28;20989;-45
2022/04/05 03:38:45;;;;;;;78.10;54.33;;;;;;;;;;5003579;28;20454;-45
2022/04/05 03:41:12;;;;;;;69.27;49.53;;;;;;;;;;5002087;28;20427;-45
2022/04/05 03:43:38;;;;;;;64.33;48.43;;;;;;;;;;4998783;28;20821;-45
2022/04/05 03:46:04;;;;;;;63.23;47.80;;;;;;;;;;5000504;28;20427;-45
2022/04/05 03:48:30;;;;;;;65.87;48.23;;;;;;;;;;5003456;28;20418;-45
2022/04/05 03:50:56;;;;;;;62.47;46.50;;;;;;;;;;5004443;28;20582;-45
2022/04/05 03:53:22;;;;;;;65.43;47.80;;;;;;;;;;5000725;28;20426;-45
2022/04/05 03:55:48;;;;;;;71.63;51.53;;;;;;;;;;5003538;28;20932;-45
2022/04/05 03:58:15;;;;;;;69.67;49.90;;;;;;;;;;4999460;28;21068;-45
2022/04/05 04:00:41;;;;;;;68.33;48.23;;;;;;;;;;5004171;28;20418;-45
2022/04/05 04:03:07;;;;;;;64.67;47.57;;;;;;;;;;5003247;28;20446;-45
2022/04/05 04:05:33;;;;;;;64.60;47.97;;;;;;;;;;5001363;28;20431;-45
2022/04/05 04:07:59;;;;;;;65.93;46.40;;;;;;;;;;5003538;28;20996;-45
2022/04/05 04:10:25;;;;;;;65.30;47.83;;;;;;;;;;5004540;28;20500;-45
2022/04/05 04:12:52;;;;;;;58.87;43.63;;;;;;;;;;5004012;28;21257;-45
2022/04/05 04:15:19;;;;;;;62.50;44.17;;;;;;;;;;5005357;28;20422;-45
2022/04/05 04:17:45;;;;;;;57.13;41.07;;;;;;;;;;4999892;28;21115;-45
2022/04/05 04:20:11;;;;;;;58.03;40.17;;;;;;;;;;5008532;28;20449;-45
2022/04/05 04:22:37;;;;;;;51.40;36.67;;;;;;;;;;5004946;28;20444;-45
2022/04/05 04:25:04;;;;;;;45.00;34.47;;;;;;;;;;5002860;28;20415;-45
2022/04/05 04:27:30;;;;;;;49.10;35.80;;;;;;;;;;5003398;28;20458;-44
2022/04/05 04:29:56;;;;;;;50.70;37.07;;;;;;;;;;5005676;28;20491;-45
2022/04/05 04:32:22;;;;;;;49.63;34.50;;;;;;;;;;5002885;28;20677;-45
2022/04/05 04:34:48;;;;;;;45.30;32.67;;;;;;;;;;5002487;28;20426;-45
2022/04/05 04:37:14;;;;;;;43.80;31.97;;;;;;;;;;5004015;28;20466;-45
2022/04/05 04:39:40;;;;;;;36.83;28.93;;;;;;;;;;5006798;28;20897;-45
2022/04/05 04:42:07;;;;;;;41.03;30.87;;;;;;;;;;5001673;28;20812;-45
2022/04/05 04:44:33;;;;;;;42.37;31.90;;;;;;;;;;5000708;28;20422;-45
2022/04/05 04:46:59;;;;;;;43.13;28.43;;;;;;;;;;5002348;28;20418;-44
2022/04/05 04:49:25;;;;;;;35.23;26.83;;;;;;;;;;5003293;28;21104;-45
2022/04/05 04:51:51;;;;;;;39.80;29.63;;;;;;;;;;5004863;28;21119;-45
2022/04/05 04:54:17;;;;;;;37.80;27.70;;;;;;;;;;5000692;28;20444;-45
2022/04/05 04:56:43;;;;;;;37.67;27.10;;;;;;;;;;4997182;28;20485;-45
2022/04/05 04:59:10;;;;;;;36.50;27.13;;;;;;;;;;5004047;28;21356;-45
2022/04/05 05:01:36;;;;;;;40.80;27.70;;;;;;;;;;4999369;28;20492;-45
2022/04/05 05:04:02;;;;;;;34.00;25.87;;;;;;;;;;4995459;28;21552;-45
2022/04/05 05:06:28;;;;;;;38.00;25.47;;;;;;;;;;5000765;28;20633;-45
2022/04/05 05:08:54;;;;;;;38.87;28.13;;;;;;;;;;4989931;28;20457;-45
2022/04/05 05:11:20;;;;;;;36.43;26.30;;;;;;;;;;4982723;28;21365;-45
2022/04/05 05:13:46;;;;;;;35.77;27.00;;;;;;;;;;5000910;28;20433;-45
2022/04/05 05:16:12;;;;;;;35.00;26.07;;;;;;;;;;4996665;28;20765;-45
2022/04/05 05:18:38;;;;;;;34.07;25.37;;;;;;;;;;4999760;28;20461;-45
2022/04/05 05:21:05;;;;;;;38.30;26.70;;;;;;;;;;5002118;28;20450;-45
2022/04/05 05:23:31;;;;;;;30.60;24.23;;;;;;;;;;4998993;28;20747;-45
2022/04/05 05:25:57;;;;;;;33.13;24.50;;;;;;;;;;4999715;28;20414;-45
2022/04/05 05:28:23;;;;;;;30.10;23.00;;;;;;;;;;4999459;28;20461;-45
2022/04/05 05:30:49;;;;;;;35.07;24.53;;;;;;;;;;5001023;28;20430;-44
2022/04/05 05:33:15;;;;;;;27.53;20.33;;;;;;;;;;4999951;28;21001;-45
2022/04/05 05:35:42;;;;;;;25.20;18.23;;;;;;;;;;4999130;28;20707;-45
2022/04/05 05:38:08;;;;;;;28.27;18.73;;;;;;;;;;5001356;28;20446;-45
2022/04/05 05:40:34;;;;;;;25.13;18.83;;;;;;;;;;4984235;28;21163;-45
2022/04/05 05:43:02;;;;;;;28.40;19.50;;;;;;;;;;4997074;28;20422;-45
2022/04/05 05:45:29;;;;;;;29.03;20.93;;;;;;;;;;5002924;28;20451;-45
2022/04/05 05:47:55;;;;;;;29.27;21.37;;;;;;;;;;5003911;28;21936;-45
2022/04/05 05:50:21;;;;;;;25.90;20.67;;;;;;;;;;5001660;28;20935;-45
2022/04/05 05:52:48;;;;;;;29.43;20.17;;;;;;;;;;5000237;28;20426;-45
2022/04/05 05:55:15;;;;;;;28.73;19.17;;;;;;;;;;5003503;28;20457;-45
2022/04/05 05:57:42;;;;;;;26.50;20.27;;;;;;;;;;5006542;28;20457;-45
2022/04/05 06:00:09;;;;;;;28.23;18.00;;;;;;;;;;4999551;28;20410;-45
2022/04/05 06:02:42;;;;;;;24.50;16.83;;;;;;;;;;4998469;28;20949;-45
2022/04/05 06:05:08;;;;;;;24.40;16.50;;;;;;;;;;5003994;28;20418;-45
2022/04/05 06:07:35;;;;;;;22.53;16.60;;;;;;;;;;5004345;28;21005;-45
2022/04/05 06:10:02;;;;;;;23.13;15.73;;;;;;;;;;5003619;28;20417;-45
2022/04/05 06:12:28;;;;;;;22.17;16.10;;;;;;;;;;5003806;28;20422;-45
2022/04/05 06:14:54;;;;;;;21.07;15.73;;;;;;;;;;5004597;28;20914;-45
2022/04/05 06:17:20;;;;;;;21.43;14.40;;;;;;;;;;5003300;28;20426;-45
2022/04/05 06:19:47;;;;;;;18.20;13.37;;;;;;;;;;5006437;28;20705;-45
2022/04/05 06:22:13;;;;;;;21.80;14.07;;;;;;;;;;5003245;28;21467;-45
2022/04/05 06:24:39;;;;;;;20.17;13.93;;;;;;;;;;5003416;28;20406;-45
2022/04/05 06:27:05;;;;;;;19.20;13.70;;;;;;;;;;5005582;28;20962;-45
2022/04/05 06:29:32;;;;;;;19.67;13.53;;;;;;;;;;5006862;28;20445;-45
2022/04/05 06:31:58;;;;;;;20.77;14.27;;;;;;;;;;5004287;28;20888;-45
2022/04/05 06:34:27;;;;;;;20.40;14.20;;;;;;;;;;5002813;28;20807;-45
2022/04/05 06:36:53;;;;;;;17.87;13.40;;;;;;;;;;5004649;28;20422;-45
2022/04/05 06:39:19;;;;;;;22.00;14.47;;;;;;;;;;5005801;28;21064;-45
2022/04/05 06:41:46;;;;;;;18.97;13.53;;;;;;;;;;5003519;28;20423;-44
2022/04/05 06:44:12;;;;;;;18.60;12.90;;;;;;;;;;5003646;28;20418;-45
2022/04/05 06:46:38;;;;;;;17.80;13.20;;;;;;;;;;5007140;28;20418;-45
2022/04/05 06:49:05;;;;;;;18.63;13.03;;;;;;;;;;5003104;28;20421;-45
2022/04/05 06:51:31;;;;;;;15.77;12.43;;;;;;;;;;5004308;28;20960;-45
2022/04/05 06:53:57;;;;;;;16.80;12.30;;;;;;;;;;5002354;28;20848;-45
2022/04/05 06:56:25;;;;;;;15.53;11.07;;;;;;;;;;5004365;28;20804;-45
2022/04/05 06:58:51;;;;;;;15.17;11.30;;;;;;;;;;4986993;28;20454;-44
2022/04/05 07:01:17;;;;;;;20.67;12.17;;;;;;;;;;5017364;28;20500;-45
2022/04/05 07:03:44;;;;;;;17.27;11.53;;;;;;;;;;5001975;28;20414;-45
2022/04/05 07:06:10;;;;;;;15.93;11.23;;;;;;;;;;5005627;28;20395;-44
2022/04/05 07:08:36;;;;;;;18.50;11.47;;;;;;;;;;5004818;28;20438;-45
2022/04/05 07:11:03;;;;;;;15.63;11.13;;;;;;;;;;5001992;28;21218;-44
2022/04/05 07:13:30;;;;;;;17.53;11.20;;;;;;;;;;5003570;28;20483;-44
2022/04/05 07:15:57;;;;;;;19.73;10.47;;;;;;;;;;5006798;28;20873;-45
2022/04/05 07:18:23;;;;;;;19.37;11.50;;;;;;;;;;5002715;28;20669;-45
2022/04/05 07:20:50;;;;;;;17.43;11.37;;;;;;;;;;5001996;28;20418;-45
2022/04/05 07:23:17;;;;;;;16.10;10.63;;;;;;;;;;4987328;28;20693;-45
2022/04/05 07:25:43;;;;;;;19.10;11.17;;;;;;;;;;5003250;28;20738;-45
2022/04/05 07:28:09;;;;;;;18.87;11.60;;;;;;;;;;4999479;28;20426;-45
2022/04/05 07:30:35;;;;;;;19.03;11.50;;;;;;;;;;4977598;28;20748;-45
2022/04/05 07:33:01;;;;;;;17.80;10.70;;;;;;;;;;5006381;28;20180;-44
2022/04/05 07:35:28;;;;;;;17.23;10.77;;;;;;;;;;5005951;28;20173;-44
2022/04/05 07:37:54;;;;;;;17.33;10.73;;;;;;;;;;5005459;28;20192;-44
2022/04/05 07:40:20;;;;;;;18.07;9.90;;;;;;;;;;5009188;28;20164;-45
2022/04/05 07:42:47;;;;;;;18.53;10.53;;;;;;;;;;5006894;28;20909;-45
2022/04/05 07:45:13;;;;;;;15.57;10.27;;;;;;;;;;5005506;28;20616;-45
2022/04/05 07:47:40;;;;;;;17.07;10.63;;;;;;;;;;5006064;28;20176;-45
2022/04/05 07:50:07;;;;;;;17.13;10.30;;;;;;;;;;5009586;28;20828;-45
2022/04/05 07:52:34;;;;;;;18.97;10.90;;;;;;;;;;5008080;28;20467;-45
2022/04/05 07:55:00;;;;;;;19.37;9.97;;;;;;;;;;5008756;28;20177;-45
2022/04/05 07:57:26;;;;;;;16.37;9.73;;;;;;;;;;5008773;28;20184;-45
2022/04/05 07:59:52;;;;;;;23.60;11.17;;;;;;;;;;5010260;28;20828;-45
2022/04/05 08:02:18;;;;;;;23.10;10.33;;;;;;;;;;5002785;28;20164;-45
2022/04/05 08:04:45;;;;;;;19.53;10.80;;;;;;;;;;5004049;28;20202;-45
2022/04/05 08:07:11;;;;;;;18.90;10.30;;;;;;;;;;5005167;28;20168;-45
2022/04/05 08:09:37;;;;;;;22.97;11.70;;;;;;;;;;5010292;28;20196;-45
2022/04/05 08:12:03;;;;;;;20.73;12.03;;;;;;;;;;5007081;28;20168;-45
2022/04/05 08:14:31;;;;;;;21.10;12.30;;;;;;;;;;5005411;28;20295;-45
2022/04/05 08:16:57;;;;;;;23.53;12.33;;;;;;;;;;5004823;28;20484;-45
2022/04/05 08:19:24;;;;;;;22.33;12.50;;;;;;;;;;5009608;28;20239;-45
2022/04/05 08:21:50;;;;;;;23.70;12.20;;;;;;;;;;5005553;28;20603;-46
2022/04/05 08:24:17;;;;;;;20.40;11.30;;;;;;;;;;5007101;28;20192;-45
2022/04/05 08:26:43;;;;;;;26.23;14.17;;;;;;;;;;5008553;28;20180;-46
2022/04/05 08:29:10;;;;;;;23.50;13.47;;;;;;;;;;5010702;28;20249;-46
2022/04/05 08:31:36;;;;;;;26.37;13.60;;;;;;;;;;5009500;28;20176;-46
2022/04/05 08:34:02;;;;;;;27.67;14.23;;;;;;;;;;5007408;28;20183;-46
2022/04/05 08:36:28;;;;;;;24.57;13.80;;;;;;;;;;5006757;28;20715;-46
2022/04/05 08:38:54;;;;;;;27.20;14.63;;;;;;;;;;5009904;28;20196;-46
2022/04/05 08:41:21;;;;;;;24.83;14.50;;;;;;;;;;5009029;28;20647;-46
2022/04/05 08:43:51;;;;;;;24.37;14.03;;;;;;;;;;5006344;28;20541;-46
2022/04/05 08:46:18;;;;;;;26.40;15.03;;;;;;;;;;5006502;28;20535;-46
2022/04/05 08:48:46;;;;;;;22.27;13.77;;;;;;;;;;5008089;28;20187;-46
2022/04/05 08:51:12;;;;;;;24.33;13.83;;;;;;;;;;5008584;28;20172;-53
2022/04/05 08:53:39;;;;;;;24.57;14.17;;;;;;;;;;5006654;28;21118;-46
2022/04/05 08:56:05;;;;;;;25.63;14.50;;;;;;;;;;5005002;28;20509;-46
2022/04/05 08:58:31;;;;;;;24.73;13.67;;;;;;;;;;5006033;28;20191;-46
2022/04/05 09:00:58;;;;;;;21.87;13.30;;;;;;;;;;5010640;28;20275;-46
2022/04/05 09:03:24;;;;;;;25.03;14.63;;;;;;;;;;5006823;28;20526;-46
2022/04/05 09:05:50;;;;;;;23.33;14.00;;;;;;;;;;5011766;28;20479;-46
2022/04/05 09:08:18;;;;;;;23.50;14.07;;;;;;;;;;5009590;28;20728;-46
2022/04/05 09:10:45;;;;;;;24.87;13.80;;;;;;;;;;5006343;28;20775;-46
2022/04/05 09:13:12;;;;;;;25.43;15.20;;;;;;;;;;5006415;28;20561;-46
2022/04/05 09:15:40;;;;;;;22.93;14.13;;;;;;;;;;5009199;28;20731;-45
2022/04/05 09:18:06;;;;;;;25.80;15.03;;;;;;;;;;5006577;28;20950;-46
2022/04/05 09:20:43;;;;;;;22.03;13.90;;;;;;;;;;5004021;28;20168;-46
2022/04/05 09:23:22;;;;;;;24.07;14.33;;;;;;;;;;5007860;28;20554;-45
2022/04/05 09:25:55;;;;;;;20.63;13.07;;;;;;;;;;4991987;28;20298;-45
2022/04/05 09:28:29;;;;;;;22.10;13.53;;;;;;;;;;5004913;28;20176;-45
2022/04/05 09:30:59;;;;;;;20.17;12.33;;;;;;;;;;5002555;28;21094;-45
2022/04/05 09:33:25;;;;;;;21.43;13.73;;;;;;;;;;5008604;28;20323;-45
2022/04/05 09:36:01;;;;;;;18.47;12.17;;;;;;;;;;5007497;28;20708;-37
2022/04/05 09:38:27;;;;;;;21.70;13.20;;;;;;;;;;5007143;28;20598;-37
2022/04/05 09:40:53;;;;;;;20.37;13.17;;;;;;;;;;5010818;28;20179;-37
2022/04/05 09:43:22;;;;;;;19.60;12.17;;;;;;;;;;4983915;28;20187;-37
2022/04/05 09:45:51;;;;;;;18.53;11.10;;;;;;;;;;5002805;28;22325;-37
2022/04/05 09:48:21;;;;;;;17.40;10.50;;;;;;;;;;4999414;28;20557;-38
2022/04/05 09:51:05;;;;;;;15.73;10.67;;;;;;;;;;5008170;28;20450;-37
2022/04/05 09:53:34;;;;;;;24.40;12.73;;;;;;;;;;5007844;28;20275;-37
2022/04/05 09:56:04;;;;;;;19.73;12.67;;;;;;;;;;5001875;28;20218;-37
2022/04/05 09:58:30;;;;;;;17.67;12.40;;;;;;;;;;5005532;28;20218;-37
2022/04/05 10:01:07;;;;;;;19.20;11.77;;;;;;;;;;5006300;28;20555;-37
2022/04/05 10:03:34;;;;;;;18.80;12.40;;;;;;;;;;5003914;28;20183;-37
2022/04/05 10:06:01;;;;;;;17.43;11.43;;;;;;;;;;5006005;28;20562;-37
2022/04/05 10:08:28;;;;;;;18.27;11.20;;;;;;;;;;5004285;28;20608;-37
2022/04/05 10:10:55;;;;;;;15.47;10.60;;;;;;;;;;5004390;28;20175;-37
2022/04/05 10:13:21;;;;;;;19.83;11.87;;;;;;;;;;5001159;28;20256;-37
2022/04/05 10:15:48;;;;;;;16.60;11.03;;;;;;;;;;5007501;28;20180;-37
2022/04/05 10:18:19;;;;;;;14.47;10.33;;;;;;;;;;5008361;28;20203;-37
2022/04/05 10:20:47;;;;;;;14.83;10.03;;;;;;;;;;5001517;28;20401;-37
2022/04/05 10:23:16;;;;;;;14.27;9.60;;;;;;;;;;5002889;28;20176;-37
2022/04/05 10:25:42;;;;;;;15.30;9.47;;;;;;;;;;5007333;28;20165;-37
2022/04/05 10:28:08;;;;;;;14.77;9.60;;;;;;;;;;5001618;28;20658;-37
2022/04/05 10:31:04;;;;;;;14.27;9.17;;;;;;;;;;5000117;28;20856;-37
2022/04/05 10:33:45;;;;;;;14.00;10.17;;;;;;;;;;4985989;28;20497;-37
2022/04/05 10:36:11;;;;;;;14.80;10.57;;;;;;;;;;5006625;28;20237;-36
2022/04/05 10:38:38;;;;;;;16.23;10.00;;;;;;;;;;5003416;28;20666;-37
2022/04/05 10:41:13;;;;;;;17.50;11.20;;;;;;;;;;5005161;28;20191;-36
2022/04/05 10:43:39;;;;;;;14.30;10.57;;;;;;;;;;5004649;28;20203;-37
2022/04/05 10:46:06;;;;;;;12.30;10.03;;;;;;;;;;5008111;28;20165;-37
2022/04/05 10:48:32;;;;;;;15.33;10.00;;;;;;;;;;5006248;28;20249;-36
2022/04/05 10:51:01;;;;;;;13.93;10.73;;;;;;;;;;5003628;28;20467;-36
2022/04/05 10:53:31;;;;;;;11.53;9.50;;;;;;;;;;5006325;28;20172;-36
2022/04/05 10:56:04;;;;;;;15.40;10.47;;;;;;;;;;5008193;28;21045;-36
2022/04/05 10:58:33;;;;;;;15.00;10.70;;;;;;;;;;5005160;28;20299;-36
2022/04/05 11:01:18;;;;;;;14.10;10.43;;;;;;;;;;5004240;28;20172;-36
2022/04/05 11:04:04;;;;;;;12.30;9.67;;;;;;;;;;5002652;28;20478;-36
2022/04/05 11:06:30;;;;;;;13.50;10.67;;;;;;;;;;5002662;28;20168;-36
2022/04/05 11:08:58;;;;;;;16.50;11.40;;;;;;;;;;5003795;28;20883;-36
2022/04/05 11:11:25;;;;;;;14.17;10.20;;;;;;;;;;5004314;28;20184;-37
2022/04/05 11:14:01;;;;;;;13.13;9.77;;;;;;;;;;5010553;28;20300;-36
2022/04/05 11:16:28;;;;;;;14.00;10.40;;;;;;;;;;5006550;28;20567;-36
2022/04/05 11:18:58;;;;;;;14.23;11.97;;;;;;;;;;5007380;28;20506;-37
2022/04/05 11:21:24;;;;;;;20.03;12.03;;;;;;;;;;5008989;28;20176;-36
2022/04/05 11:23:51;;;;;;;16.00;12.50;;;;;;;;;;5008190;28;20171;-36
2022/04/05 11:26:33;;;;;;;14.80;11.57;;;;;;;;;;5007065;28;20267;-37
2022/04/05 11:28:59;;;;;;;16.43;12.10;;;;;;;;;;5010226;28;20239;-36
2022/04/05 11:31:30;;;;;;;13.57;10.30;;;;;;;;;;5005501;28;20188;-36
2022/04/05 11:33:58;;;;;;;14.47;11.53;;;;;;;;;;5007026;28;20271;-37
2022/04/05 11:36:25;;;;;;;15.17;11.63;;;;;;;;;;5009445;28;20183;-37
2022/04/05 11:38:54;;;;;;;16.43;12.00;;;;;;;;;;5005320;28;20200;-37
2022/04/05 11:41:22;;;;;;;15.67;11.07;;;;;;;;;;5004778;28;20229;-37
2022/04/05 11:43:53;;;;;;;16.70;12.10;;;;;;;;;;5009577;28;20386;-37
2022/04/05 11:46:27;;;;;;;15.43;11.83;;;;;;;;;;5009118;28;20290;-37
2022/04/05 11:48:54;;;;;;;17.97;12.23;;;;;;;;;;5007776;28;20343;-37
2022/04/05 11:51:22;;;;;;;14.30;11.53;;;;;;;;;;5008139;28;20657;-37
2022/04/05 11:53:48;;;;;;;14.27;11.20;;;;;;;;;;5009934;28;20188;-37
2022/04/05 11:56:22;;;;;;;14.27;11.30;;;;;;;;;;5009903;28;20266;-37
2022/04/05 11:58:50;;;;;;;15.87;11.23;;;;;;;;;;5010695;28;20242;-37
2022/04/05 12:01:20;;;;;;;12.83;10.60;;;;;;;;;;5007254;28;20208;-37
2022/04/05 12:03:50;;;;;;;13.07;10.77;;;;;;;;;;5005988;28;20207;-37
2022/04/05 12:06:23;;;;;;;16.30;11.13;;;;;;;;;;5006359;28;20549;-37
2022/04/05 12:08:51;;;;;;;13.97;10.87;;;;;;;;;;5000731;28;20440;-37
2022/04/05 12:11:18;;;;;;;14.03;10.83;;;;;;;;;;5005768;28;20490;-37
2022/04/05 12:13:52;;;;;;;15.50;11.57;;;;;;;;;;5009108;28;20589;-37
2022/04/05 12:16:18;;;;;;;15.50;10.67;;;;;;;;;;5000652;28;20322;-37
2022/04/05 12:18:45;;;;;;;13.63;10.87;;;;;;;;;;5005679;28;20191;-37
2022/04/05 12:21:12;;;;;;;17.27;11.03;;;;;;;;;;5005316;28;20647;-37
2022/04/05 12:23:39;;;;;;;15.43;11.27;;;;;;;;;;5010743;28;20207;-37
2022/04/05 12:26:13;;;;;;;14.20;11.00;;;;;;;;;;5005757;28;20184;-38
2022/04/05 12:28:45;;;;;;;13.90;10.80;;;;;;;;;;5005987;28;20180;-37
2022/04/05 12:31:13;;;;;;;13.87;11.00;;;;;;;;;;5008585;28;20298;-37
2022/04/05 12:33:40;;;;;;;14.67;11.07;;;;;;;;;;4984010;28;20971;-36
2022/04/05 12:36:07;;;;;;;14.97;11.00;;;;;;;;;;5004756;28;20482;-37
2022/04/05 12:38:33;;;;;;;15.10;10.87;;;;;;;;;;5002764;28;20223;-37
2022/04/05 12:41:02;;;;;;;12.47;10.03;;;;;;;;;;4991745;28;20419;-37
2022/04/05 12:43:28;;;;;;;14.43;9.70;;;;;;;;;;5005233;28;20805;-37
2022/04/05 12:45:54;;;;;;;14.07;9.80;;;;;;;;;;5001539;28;20239;-37
2022/04/05 12:48:21;;;;;;;13.60;10.17;;;;;;;;;;5003992;28;20184;-37
2022/04/05 12:50:52;;;;;;;11.93;9.23;;;;;;;;;;5009761;28;20849;-37
2022/04/05 12:53:28;;;;;;;16.77;10.67;;;;;;;;;;5005528;28;20596;-37
2022/04/05 12:55:59;;;;;;;14.00;10.00;;;;;;;;;;5008098;28;20294;-37
2022/04/05 12:58:54;;;;;;;15.67;10.07;;;;;;;;;;5005002;28;20715;-37
2022/04/05 13:01:21;;;;;;;13.60;10.47;;;;;;;;;;4986647;28;20188;-37
2022/04/05 13:03:48;;;;;;;13.73;9.67;;;;;;;;;;5005954;28;20501;-37
2022/04/05 13:06:24;;;;;;;11.70;10.00;;;;;;;;;;5009308;28;20506;-37
2022/04/05 13:08:52;;;;;;;12.63;10.57;;;;;;;;;;5006136;28;20168;-37
2022/04/05 13:11:25;;;;;;;14.03;10.17;;;;;;;;;;5003278;28;20176;-37
2022/04/05 13:14:01;;;;;;;12.77;9.57;;;;;;;;;;5007537;28;20244;-37
2022/04/05 13:16:28;;;;;;;13.97;10.97;;;;;;;;;;5006466;28;20866;-38
2022/04/05 13:18:54;;;;;;;15.83;10.17;;;;;;;;;;5006786;28;20510;-37
2022/04/05 13:21:26;;;;;;;13.10;10.77;;;;;;;;;;5005743;28;20199;-37
2022/04/05 13:24:02;;;;;;;13.03;10.00;;;;;;;;;;5008212;28;20291;-37
2022/04/05 13:26:29;;;;;;;12.17;10.00;;;;;;;;;;5009800;28;20163;-37
2022/04/05 13:29:23;;;;;;;15.77;11.17;;;;;;;;;;5005942;28;20602;-37
2022/04/05 13:31:49;;;;;;;14.10;9.87;;;;;;;;;;5002378;28;20569;-37
2022/04/05 13:34:16;;;;;;;14.57;11.23;;;;;;;;;;5008025;28;20566;-38
2022/04/05 13:36:43;;;;;;;14.90;10.13;;;;;;;;;;5007094;28;20250;-37
2022/04/05 13:39:10;;;;;;;15.07;11.20;;;;;;;;;;5005547;28;21068;-38
2022/04/05 13:41:36;;;;;;;16.47;10.70;;;;;;;;;;5009393;28;20769;-37
2022/04/05 13:44:03;;;;;;;14.87;10.83;;;;;;;;;;5007200;28;20176;-37
2022/04/05 13:46:31;;;;;;;15.53;10.83;;;;;;;;;;5003667;28;20183;-37
2022/04/05 13:48:57;;;;;;;14.10;11.03;;;;;;;;;;5002998;28;20179;-37
2022/04/05 13:51:24;;;;;;;13.73;10.90;;;;;;;;;;5007133;28;20681;-37
2022/04/05 13:53:51;;;;;;;13.97;11.43;;;;;;;;;;5010826;28;20267;-37
2022/04/05 13:56:17;;;;;;;13.27;10.70;;;;;;;;;;5003902;28;20307;-37
2022/04/05 13:58:43;;;;;;;13.77;11.53;;;;;;;;;;5009001;28;20206;-37
2022/04/05 14:01:09;;;;;;;14.23;10.83;;;;;;;;;;5005159;28;20187;-38
2022/04/05 14:03:36;;;;;;;15.30;10.63;;;;;;;;;;5003755;28;20734;-38
2022/04/05 14:06:02;;;;;;;16.40;10.90;;;;;;;;;;5002018;28;21008;-38
2022/04/05 14:08:28;;;;;;;15.17;11.10;;;;;;;;;;5008525;28;20179;-37
2022/04/05 14:10:54;;;;;;;18.83;11.60;;;;;;;;;;5003068;28;21007;-37
2022/04/05 14:13:20;;;;;;;14.90;11.20;;;;;;;;;;5004083;28;20559;-37
2022/04/05 14:15:46;;;;;;;15.80;11.13;;;;;;;;;;5006484;28;20180;-35
2022/04/05 14:18:13;;;;;;;14.87;11.97;;;;;;;;;;5004446;28;20226;-35
2022/04/05 14:20:39;;;;;;;15.17;11.47;;;;;;;;;;5006305;28;20956;-35